createdAt,value
2022-08-18T00:01:16.371Z,97746.68222495307
2022-08-18T00:04:34.717Z,97746.34490549832
2022-08-18T00:07:19.335Z,97750.82899850952
2022-08-18T00:11:22.683Z,97753.46039481401
2022-08-18T00:14:21.400Z,97758.38102010117
2022-08-18T00:17:17.639Z,97770.3985979377
2022-08-18T00:21:15.984Z,97776.66940211745
2022-08-18T00:24:16.172Z,97768.94169266417
2022-08-18T00:27:19.211Z,97758.1821748037
2022-08-18T00:31:16.314Z,97762.07405625074
2022-08-18T00:34:16.855Z,97746.31677971625
2022-08-18T00:37:16.890Z,97728.19372858276
2022-08-18T00:41:15.771Z,97707.00409195335
2022-08-18T00:44:18.075Z,97706.03015030627
2022-08-18T00:47:15.923Z,97710.08860886154
2022-08-18T00:51:22.596Z,97708.75666220862
2022-08-18T00:54:20.640Z,97708.46271461119
2022-08-18T00:57:18.544Z,97699.2075717164
2022-08-18T01:01:18.730Z,97701.49056744833
2022-08-18T01:04:21.041Z,97702.78156219829
2022-08-18T01:07:21.148Z,97694.1990963206
2022-08-18T01:11:16.343Z,97692.73707981315
2022-08-18T01:14:18.725Z,97694.60154239985
2022-08-18T01:22:28.052Z,97692.46833464642
2022-08-18T01:24:21.737Z,97695.87193950369
2022-08-18T01:27:18.333Z,97702.36974409399
2022-08-18T01:41:28.543Z,97724.9495762059
2022-08-18T01:44:16.143Z,97721.49218648234
2022-08-18T01:47:18.555Z,97731.48518567972
2022-08-18T01:51:17.053Z,97745.24017319975
2022-08-18T01:54:16.869Z,97753.88131479938
2022-08-18T01:57:19.249Z,97744.59029951978
2022-08-18T02:01:15.922Z,97767.90328021842
2022-08-18T02:04:34.327Z,97839.47139802384
2022-08-18T02:07:16.398Z,97842.22950695587
2022-08-18T02:11:16.025Z,97806.76816965171
2022-08-18T02:14:16.267Z,97790.35643756972
2022-08-18T02:17:16.345Z,97790.08589800617
2022-08-18T02:21:19.477Z,97795.44502875082
2022-08-18T02:24:17.355Z,97771.09901530841
2022-08-18T02:27:16.853Z,97779.82515079831
2022-08-18T02:31:18.283Z,97755.71210280577
2022-08-18T02:34:17.146Z,97766.83823211332
2022-08-18T02:37:16.386Z,97760.36146045121
2022-08-18T02:41:16.152Z,97749.05481118134
2022-08-18T02:44:16.750Z,97736.90032411086
2022-08-18T02:47:18.667Z,97733.37320694266
2022-08-18T02:51:16.536Z,97707.6249473842
2022-08-18T02:54:16.852Z,97702.53465324994
2022-08-18T02:57:16.398Z,97709.39975129689
2022-08-18T03:01:16.395Z,97680.76719206746
2022-08-18T03:04:24.034Z,97667.52364420994
2022-08-18T03:07:17.712Z,97673.8091166227
2022-08-18T03:11:19.026Z,97688.13969929758
2022-08-18T03:14:16.792Z,97678.03838511698
2022-08-18T03:17:16.760Z,97680.8687913572
2022-08-18T03:21:19.674Z,97699.45231603258
2022-08-18T03:24:22.334Z,97702.85462828941
2022-08-18T03:27:16.689Z,97709.36041924483
2022-08-18T03:31:17.583Z,97716.5550215196
2022-08-18T03:34:17.324Z,97730.67046741195
2022-08-18T03:37:16.339Z,97730.97562790493
2022-08-18T03:41:18.419Z,97714.42543363535
2022-08-18T03:44:16.287Z,97716.63945581402
2022-08-18T03:47:17.502Z,97726.23356531169
2022-08-18T03:51:18.920Z,97738.67816541308
2022-08-18T03:54:17.413Z,97751.31063349036
2022-08-18T03:57:16.117Z,97755.42553797424
2022-08-18T04:01:26.318Z,97763.67760265284
2022-08-18T04:04:20.029Z,97753.64182988182
2022-08-18T04:07:17.660Z,97728.6674337572
2022-08-18T04:11:15.564Z,97711.90827113803
2022-08-18T04:14:18.499Z,97675.97683593571
2022-08-18T04:17:16.806Z,97652.8332347071
2022-08-18T04:21:16.961Z,97627.99561281521
2022-08-18T04:24:17.696Z,97622.05135774413
2022-08-18T04:27:17.506Z,97579.4538685466
2022-08-18T04:31:16.161Z,97580.40922575376
2022-08-18T04:34:18.221Z,97572.94836804297
2022-08-18T04:37:17.133Z,97541.10707609444
2022-08-18T04:41:16.654Z,97509.81118257857
2022-08-18T04:44:19.519Z,97496.75269875709
2022-08-18T04:47:16.975Z,97495.04790321033
2022-08-18T04:52:34.184Z,97472.29141692625
2022-08-18T04:54:16.338Z,97475.70720414905
2022-08-18T04:57:18.384Z,97467.95766935675
2022-08-18T05:01:18.658Z,97462.19684817274
2022-08-18T05:04:17.267Z,97461.47503830215
2022-08-18T05:07:19.269Z,97449.23090497841
2022-08-18T05:11:16.267Z,97429.1488738964
2022-08-18T05:14:18.188Z,97429.97186978349
2022-08-18T05:17:16.705Z,97483.94386164303
2022-08-18T05:21:16.216Z,97621.5091119557
2022-08-18T05:24:17.084Z,97592.84382578521
2022-08-18T05:27:16.195Z,97569.08967540233
2022-08-18T05:31:18.493Z,97536.37584996637
2022-08-18T05:34:18.285Z,97506.9157299733
2022-08-18T05:37:27.033Z,97467.87224223031
2022-08-18T05:41:24.808Z,97419.3072876212
2022-08-18T05:44:24.065Z,97288.90303455878
2022-08-18T05:47:21.752Z,97310.95560669365
2022-08-18T05:51:20.164Z,97306.69810935856
2022-08-18T06:01:21.865Z,97307.99605174073
2022-08-18T06:04:25.133Z,97306.00079919335
2022-08-18T06:07:25.969Z,97319.39508677878
2022-08-18T06:11:35.932Z,97338.90447400603
2022-08-18T06:14:40.378Z,97336.79482618927
2022-08-18T06:21:30.217Z,97326.99794532063
2022-08-18T06:41:43.177Z,97343.81697547717
2022-08-18T06:44:22.097Z,97343.07877196578
2022-08-18T06:47:36.850Z,97338.70800748706
2022-08-18T06:51:19.843Z,97356.69350713829
2022-08-18T06:54:41.508Z,97374.31626291675
2022-08-18T06:57:28.727Z,97372.80195764668
2022-08-18T07:01:17.205Z,97375.05257039586
2022-08-18T07:05:24.841Z,97357.36694125176
2022-08-18T07:07:28.913Z,97370.92379696446
2022-08-18T07:11:20.767Z,97377.18152473928
2022-08-18T07:14:22.623Z,97385.95143130755
2022-08-18T07:17:21.399Z,97383.51074047067
2022-08-18T07:21:29.336Z,97370.5559955763
2022-08-18T07:24:25.589Z,97364.08967615693
2022-08-18T07:27:19.732Z,97370.10933200868
2022-08-18T07:31:24.453Z,97356.83547375981
2022-08-18T07:34:19.980Z,97360.95220819613
2022-08-18T07:37:22.901Z,97359.2830792722
2022-08-18T07:41:20.821Z,97369.07389589904
2022-08-18T07:44:26.634Z,97371.51314829243
2022-08-18T07:47:20.890Z,97378.86806109222
2022-08-18T07:51:22.512Z,97384.63111831337
2022-08-18T07:54:48.174Z,97390.44109587574
2022-08-18T07:57:25.433Z,97406.24066727229
2022-08-18T08:01:26.887Z,97411.94900560736
2022-08-18T08:04:39.178Z,97416.24792261042
2022-08-18T08:07:24.363Z,97429.06521701378
2022-08-18T08:11:44.605Z,97433.00291368146
2022-08-18T08:21:19.446Z,97426.70745084484
2022-08-18T08:24:19.932Z,97432.2956584792
2022-08-18T08:27:23.699Z,97418.02644943177
2022-08-18T08:31:36.669Z,97418.58881512689
2022-08-18T08:34:23.064Z,97418.49994221915
2022-08-18T08:37:23.491Z,97410.00510423827
2022-08-18T08:41:21.635Z,97387.73785805688
2022-08-18T08:44:21.301Z,97382.68390512597
2022-08-18T08:47:22.923Z,97371.90269372189
2022-08-18T08:51:30.136Z,97364.35344732617
2022-08-18T08:54:20.814Z,97388.71390349873
2022-08-18T08:57:18.043Z,97426.17670831048
2022-08-18T09:01:25.693Z,97419.04583447672
2022-08-18T09:04:27.618Z,97423.574247274
2022-08-18T09:07:30.273Z,97456.57136890838
2022-08-18T09:21:29.036Z,97583.19260707921
2022-08-18T09:24:23.643Z,97593.54490099484
2022-08-18T09:27:39.885Z,97600.32664650927
2022-08-18T09:41:39.906Z,97630.41602806379
2022-08-18T09:45:01.762Z,97620.56321133302
2022-08-18T09:47:57.850Z,97591.2476403181
2022-08-18T09:51:31.459Z,97607.79638784738
2022-08-18T09:54:21.136Z,97571.71403011025
2022-08-18T10:11:29.177Z,97454.86505715092
2022-08-18T10:14:37.275Z,97437.80312538323
2022-08-18T10:17:34.472Z,97449.63467107953
2022-08-18T10:21:20.950Z,97483.08725114554
2022-08-18T10:24:35.063Z,97499.73620000141
2022-08-18T10:27:44.999Z,97494.64980707121
2022-08-18T10:31:15.756Z,97493.26487972302
2022-08-18T10:34:37.018Z,97515.2225351124
2022-08-18T10:37:20.311Z,97518.92014444813
2022-08-18T10:41:24.476Z,97508.74956526876
2022-08-18T10:44:29.374Z,97510.15603936928
2022-08-18T10:47:24.934Z,97501.32213179933
2022-08-18T10:51:27.516Z,97510.29504496916
2022-08-18T10:54:25.784Z,97518.47597855929
2022-08-18T10:57:28.255Z,97517.43645385175
2022-08-18T11:01:30.883Z,97527.13243204137
2022-08-18T11:04:34.688Z,97518.08402377302
2022-08-18T11:07:20.983Z,97513.45925406626
2022-08-18T11:11:34.785Z,97507.55921227581
2022-08-18T11:14:34.352Z,97517.39284195896
2022-08-18T11:17:27.054Z,97506.6362287568
2022-08-18T11:21:31.719Z,97498.62866541796
2022-08-18T11:31:16.416Z,97489.9654682351
2022-08-18T11:41:23.472Z,97460.6266552741
2022-08-18T11:51:23.501Z,97515.38176295973
2022-08-18T12:01:51.311Z,97516.14809931983
2022-08-18T12:11:26.636Z,97495.90710250408
2022-08-18T12:21:16.181Z,97544.7184518268
2022-08-18T12:24:26.402Z,97571.58306729866
2022-08-18T12:27:21.463Z,97574.04821953458
2022-08-18T12:31:17.069Z,97591.36815505027
2022-08-18T12:41:22.944Z,97543.67944048402
2022-08-18T12:51:16.562Z,97679.91359972149
2022-08-18T13:01:17.488Z,97578.2698527017
2022-08-18T13:11:38.877Z,97420.69305831258
2022-08-18T13:31:58.835Z,97492.62516271329
2022-08-18T13:34:56.651Z,97476.00835723498
2022-08-18T13:37:56.876Z,97447.88977171993
2022-08-18T13:41:16.918Z,97387.74523072934
2022-08-18T13:44:19.965Z,97422.80337029095
2022-08-18T13:47:16.275Z,97417.41865069263
2022-08-18T13:51:21.676Z,97412.39030853764
2022-08-18T13:54:30.974Z,97415.9007716664
2022-08-18T13:57:16.385Z,97369.38905722852
2022-08-18T14:01:42.558Z,97321.6180023328
2022-08-18T14:04:20.227Z,97351.87857580054
2022-08-18T14:07:19.059Z,97417.35028508559
2022-08-18T14:11:16.744Z,97416.33661919717
2022-08-18T14:14:17.355Z,97392.19603023806
2022-08-18T14:17:16.350Z,97416.55874845597
2022-08-18T14:31:20.580Z,97480.48379254922
2022-08-18T14:34:21.784Z,97480.72026179172
2022-08-18T14:37:16.540Z,97488.48749472375
2022-08-18T14:41:16.738Z,97478.05221450022
2022-08-18T14:44:17.797Z,97462.34534290666
2022-08-18T14:47:24.398Z,97427.56976429661
2022-08-18T14:51:15.994Z,97424.40651695507
2022-08-18T14:54:17.833Z,97421.24532850715
2022-08-18T14:57:16.877Z,97472.75091638506
2022-08-18T15:01:17.621Z,97466.44777330481
2022-08-18T15:04:19.442Z,97452.51128554581
2022-08-18T15:07:18.234Z,97424.86271334784
2022-08-18T15:11:17.437Z,97401.55748488574
2022-08-18T15:14:17.858Z,97402.56955819369
2022-08-18T15:17:16.659Z,97380.96586646693
2022-08-18T15:31:16.762Z,97396.91469340613
2022-08-18T15:34:20.517Z,97375.10771816786
2022-08-18T15:37:19.426Z,97370.89217384263
2022-08-18T15:41:29.405Z,97360.39924809874
2022-08-18T15:44:19.247Z,97355.31639422129
2022-08-18T16:21:39.820Z,97337.77015604808
2022-08-18T16:24:36.509Z,97331.17013465425
2022-08-18T16:27:38.250Z,97358.76064076948
2022-08-18T16:31:16.041Z,97397.39966092138
2022-08-18T16:34:16.296Z,97378.57280158465
2022-08-18T16:41:16.569Z,97365.37953119667
2022-08-18T16:44:17.232Z,97361.8476729668
2022-08-18T16:47:17.542Z,97340.68077510448
2022-08-18T16:51:19.650Z,97337.92133560736
2022-08-18T16:54:16.330Z,97345.2959788197
2022-08-18T17:11:18.486Z,97375.2047654439
2022-08-18T17:14:16.645Z,97351.46187183977
2022-08-18T17:17:18.128Z,97341.97066939822
2022-08-18T17:21:18.222Z,97359.68321970495
2022-08-18T17:24:16.031Z,97363.82182415258
2022-08-18T17:27:26.504Z,97345.92771032204
2022-08-18T17:31:16.519Z,97333.40241709074
2022-08-18T17:34:19.512Z,97337.94979881923
2022-08-18T17:37:17.848Z,97359.34596813418
2022-08-18T17:41:17.485Z,97358.97789837692
2022-08-18T17:44:21.054Z,97375.53174557984
2022-08-18T17:51:44.542Z,97337.97541659573
2022-08-18T17:54:40.778Z,97372.90495366266
2022-08-18T17:57:44.796Z,97444.3771606523
2022-08-18T18:01:16.389Z,97417.82316633558
2022-08-18T18:04:16.504Z,97426.81376915243
2022-08-18T18:07:23.742Z,97438.25407960068
2022-08-18T18:11:15.497Z,97432.19576718975
2022-08-18T18:14:24.610Z,97410.86905693934
2022-08-18T18:17:18.915Z,97378.31718632208
2022-08-18T18:21:20.679Z,97388.25756766964
2022-08-18T18:24:15.918Z,97441.15177561351
2022-08-18T18:27:29.215Z,97461.00423041005
2022-08-18T18:31:20.404Z,97441.60471566823
2022-08-18T18:34:23.552Z,97377.77305307743
2022-08-18T18:37:24.222Z,97379.6694166728
2022-08-18T18:41:21.658Z,97453.11453332035
2022-08-18T18:44:25.942Z,97461.27624478014
2022-08-18T18:47:32.083Z,97415.14335451674
2022-08-18T18:51:33.704Z,97407.88456047351
2022-08-18T18:54:34.257Z,97404.29487058315
2022-08-18T18:57:23.521Z,97416.76126058576
2022-08-18T19:01:31.231Z,97403.26718310633
2022-08-18T19:04:23.412Z,97417.2724793268
2022-08-18T19:07:23.276Z,97444.1579468297
2022-08-18T19:11:23.618Z,97446.71268024972
2022-08-18T19:14:21.421Z,97447.8879318672
2022-08-18T19:17:21.696Z,97459.46745368627
2022-08-18T19:22:04.108Z,97500.32478049697
2022-08-18T19:24:20.560Z,97493.57787104185
2022-08-18T19:41:31.296Z,97516.98300066759
2022-08-18T19:51:26.158Z,97439.00345701745
2022-08-18T19:54:39.107Z,97408.27452273523
2022-08-18T19:57:32.948Z,97382.6101798428
2022-08-18T20:01:24.866Z,97388.86338367323
2022-08-18T20:04:34.494Z,97379.73040692954
2022-08-18T20:07:37.847Z,97399.61533217512
2022-08-18T20:21:59.049Z,97350.36062948736
2022-08-18T20:24:44.133Z,97364.1008189691
2022-08-18T20:27:36.199Z,97320.1482233328
2022-08-18T20:31:15.991Z,97284.40720950247
2022-08-18T20:34:19.534Z,97247.123701973
2022-08-18T20:37:24.288Z,97200.66168946156
2022-08-18T20:41:40.299Z,97204.90565177168
2022-08-18T20:51:21.305Z,97240.70870081212
2022-08-18T20:54:29.218Z,97249.79210233626
2022-08-18T20:57:18.634Z,97225.2571489913
2022-08-18T21:01:16.625Z,97246.01891751372
2022-08-18T21:04:15.980Z,97238.86307391773
2022-08-18T21:07:36.511Z,97221.3302278228
2022-08-18T21:11:29.674Z,97269.95435952362
2022-08-18T21:14:24.437Z,97305.40517157479
2022-08-18T21:17:17.408Z,97329.91707655063
2022-08-18T21:21:26.903Z,97342.00985897804
2022-08-18T21:24:26.875Z,97314.06755320373
2022-08-18T21:27:23.557Z,97288.39489381328
2022-08-18T21:31:42.510Z,97261.69283069989
2022-08-18T21:41:19.093Z,97202.14956692923
2022-08-18T21:44:21.807Z,97216.04733316145
2022-08-18T21:47:20.215Z,97235.48857378926
2022-08-18T21:51:18.759Z,97274.3409074875
2022-08-18T21:54:19.242Z,97285.35316145957
2022-08-18T21:57:19.917Z,97311.63694659148
2022-08-18T22:01:21.823Z,97381.45725953423
2022-08-18T22:04:25.176Z,97441.2945506797
2022-08-18T22:07:34.424Z,97468.409481055
2022-08-18T22:21:31.370Z,97296.88266652868
2022-08-18T22:24:35.164Z,97279.93207009553
2022-08-18T22:27:20.244Z,97326.09620061603
2022-08-18T22:31:20.851Z,97318.50902426295
2022-08-18T22:34:27.031Z,97353.81292800252
2022-08-18T22:37:20.971Z,97382.20252603955
2022-08-18T22:41:16.070Z,97414.48258185266
2022-08-18T22:44:16.290Z,97407.19171299471
2022-08-18T22:47:15.969Z,97353.36062045004
2022-08-18T22:51:17.356Z,97395.64440366664
2022-08-18T22:54:16.558Z,97372.02719827855
2022-08-18T22:57:17.791Z,97368.88825605922
2022-08-18T23:01:16.672Z,97440.86734117313
2022-08-18T23:04:19.644Z,97469.3638095432
2022-08-18T23:07:22.333Z,97456.91172100852
2022-08-18T23:11:15.827Z,97419.01768901214
2022-08-18T23:14:16.628Z,97347.16210802709
2022-08-18T23:17:16.848Z,97330.49379745353
2022-08-18T23:21:34.716Z,97264.42469407724
2022-08-18T23:24:18.920Z,97313.06101517259
2022-08-18T23:27:16.826Z,97335.51276016058
2022-08-18T23:31:16.559Z,97359.43295264924
2022-08-18T23:34:20.638Z,97399.68607721454
2022-08-18T23:37:16.465Z,97388.25990214283
2022-08-18T23:41:16.601Z,97394.13789242877
2022-08-18T23:44:16.155Z,97375.19449014099
2022-08-18T23:47:16.621Z,97372.28039771337
2022-08-18T23:51:27.932Z,97341.19664940168
2022-08-18T23:54:20.973Z,97365.93281737348
2022-08-18T23:57:16.551Z,97358.52108669985
